createdAt,value
2023-03-02T00:04:24.794Z,22.8
2023-03-02T00:10:16.873Z,22.8
2023-03-02T00:16:09.957Z,22.8
2023-03-02T00:22:01.737Z,22.8
2023-03-02T00:27:54.581Z,22.8
2023-03-02T00:33:47.399Z,22.8
2023-03-02T00:39:40.035Z,22.8
2023-03-02T00:45:32.441Z,22.8
2023-03-02T00:51:10.285Z,22.8
2023-03-02T00:57:03.624Z,22.8
2023-03-02T01:02:57.020Z,22.8
2023-03-02T01:08:50.832Z,22.8
2023-03-02T01:14:43.955Z,22.8
2023-03-02T01:20:37.214Z,22.9
2023-03-02T01:26:14.958Z,22.8
2023-03-02T01:31:53.004Z,22.9
2023-03-02T01:37:45.895Z,22.8
2023-03-02T01:43:39.182Z,22.9
2023-03-02T01:49:16.583Z,22.9
2023-03-02T01:54:54.196Z,22.9
2023-03-02T02:00:47.823Z,22.9
2023-03-02T02:06:41.508Z,22.9
2023-03-02T02:12:34.539Z,22.9
2023-03-02T02:18:27.508Z,22.9
2023-03-02T02:24:05.243Z,22.9
2023-03-02T02:29:58.761Z,22.9
2023-03-02T02:35:52.019Z,22.9
2023-03-02T02:41:45.694Z,22.9
2023-03-02T02:47:07.034Z,22.9
2023-03-02T02:52:59.193Z,22.9
2023-03-02T02:58:37.111Z,22.9
2023-03-02T03:04:14.297Z,22.9
2023-03-02T03:09:51.806Z,22.9
2023-03-02T03:15:29.635Z,22.9
2023-03-02T03:21:22.525Z,22.9
2023-03-02T03:27:15.239Z,22.9
2023-03-02T03:33:09.001Z,22.9
2023-03-02T03:39:01.793Z,22.9
2023-03-02T03:44:55.113Z,22.9
2023-03-02T03:50:48.797Z,22.9
2023-03-02T03:56:43.450Z,22.9
2023-03-02T04:02:21.660Z,22.9
2023-03-02T04:08:00.048Z,22.9
2023-03-02T04:13:36.588Z,22.9
2023-03-02T04:18:58.187Z,22.9
2023-03-02T04:24:35.982Z,22.9
2023-03-02T04:30:13.878Z,22.9
2023-03-02T04:36:07.391Z,22.9
2023-03-02T04:41:59.342Z,22.9
2023-03-02T04:47:55.422Z,22.9
2023-03-02T04:53:48.115Z,22.9
2023-03-02T04:59:40.676Z,22.9
2023-03-02T05:05:35.480Z,22.9
2023-03-02T05:11:27.829Z,22.9
2023-03-02T05:17:20.804Z,22.9
2023-03-02T05:23:13.272Z,22.9
2023-03-02T05:29:06.483Z,22.9
2023-03-02T05:34:59.443Z,22.9
2023-03-02T05:40:53.086Z,22.9
2023-03-02T05:46:46.591Z,22.9
2023-03-02T05:52:40.058Z,22.9
2023-03-02T05:58:17.832Z,22.9
2023-03-02T06:03:55.066Z,22.9
2023-03-02T06:09:32.485Z,22.9
2023-03-02T06:15:09.428Z,22.9
2023-03-02T06:20:46.546Z,22.9
2023-03-02T06:26:24.795Z,22.9
2023-03-02T06:32:16.521Z,22.9
2023-03-02T06:37:54.643Z,22.9
2023-03-02T06:43:32.304Z,22.9
2023-03-02T06:49:09.874Z,22.9
2023-03-02T06:54:47.307Z,22.9
2023-03-02T07:00:25.814Z,22.9
2023-03-02T07:06:04.843Z,22.9
2023-03-02T07:11:42.939Z,22.9
2023-03-02T07:17:22.999Z,22.9
2023-03-02T07:23:00.566Z,22.9
2023-03-02T07:28:37.544Z,22.9
2023-03-02T07:34:15.250Z,22.9
2023-03-02T07:40:08.429Z,22.9
2023-03-02T07:46:01.627Z,22.9
2023-03-02T07:51:54.920Z,22.9
2023-03-02T07:57:31.677Z,22.9
2023-03-02T08:03:24.991Z,22.9
2023-03-02T08:09:17.818Z,22.9
2023-03-02T08:15:10.475Z,22.9
2023-03-02T08:21:02.868Z,22.9
2023-03-02T08:26:55.948Z,22.9
2023-03-02T08:32:33.444Z,22.9
2023-03-02T08:38:27.299Z,22.9
2023-03-02T08:44:20.977Z,22.9
2023-03-02T08:50:14.473Z,22.9
2023-03-02T08:56:07.738Z,22.9
2023-03-02T09:02:01.209Z,22.9
2023-03-02T09:07:54.543Z,22.9
2023-03-02T09:13:47.065Z,22.9
2023-03-02T09:19:40.004Z,22.8
2023-03-02T09:25:32.507Z,22.8
2023-03-02T09:31:24.802Z,22.8
2023-03-02T09:37:18.934Z,22.9
2023-03-02T09:43:22.093Z,22.8
2023-03-02T09:49:20.627Z,22.8
2023-03-02T09:55:15.236Z,22.8
2023-03-02T10:01:16.534Z,22.8
2023-03-02T10:07:00.814Z,22.8
2023-03-02T10:12:53.796Z,22.8
2023-03-02T10:18:50.175Z,22.8
2023-03-02T10:24:50.298Z,22.8
2023-03-02T10:30:43.105Z,22.8
2023-03-02T10:36:20.844Z,22.8
2023-03-02T10:42:13.852Z,22.8
2023-03-02T10:48:07.432Z,22.8
2023-03-02T10:54:16.317Z,22.8
2023-03-02T11:00:09.333Z,22.8
2023-03-02T11:06:03.000Z,22.8
2023-03-02T11:11:57.219Z,22.8
2023-03-02T11:17:51.257Z,22.8
2023-03-02T11:23:28.273Z,22.8
2023-03-02T11:29:05.849Z,22.8
2023-03-02T11:35:11.072Z,22.8
2023-03-02T11:41:08.963Z,22.7
2023-03-02T11:46:59.805Z,22.8
2023-03-02T11:53:11.367Z,22.8
2023-03-02T11:59:06.829Z,22.7
2023-03-02T12:04:29.860Z,22.8
2023-03-02T12:10:23.958Z,22.7
2023-03-02T12:16:17.231Z,22.7
2023-03-02T12:22:11.076Z,22.7
2023-03-02T12:28:03.868Z,22.7
2023-03-02T12:33:56.557Z,22.7
2023-03-02T12:39:50.329Z,22.7
2023-03-02T12:45:44.308Z,22.6
2023-03-02T12:51:41.890Z,22.6
2023-03-02T12:57:34.520Z,22.7
2023-03-02T13:03:28.304Z,22.6
2023-03-02T13:09:21.096Z,22.7
2023-03-02T13:15:18.099Z,22.6
2023-03-02T13:21:11.586Z,22.6
2023-03-02T13:27:04.123Z,22.6
2023-03-02T13:32:58.416Z,22.6
2023-03-02T13:38:51.853Z,22.6
2023-03-02T13:44:44.138Z,22.6
2023-03-02T13:50:53.557Z,22.6
2023-03-02T13:56:46.324Z,22.6
2023-03-02T14:02:39.861Z,22.6
2023-03-02T14:08:34.219Z,22.6
2023-03-02T14:14:12.357Z,22.6
2023-03-02T14:20:04.839Z,22.6
2023-03-02T14:25:58.841Z,22.6
2023-03-02T14:31:57.951Z,22.6
2023-03-02T14:37:50.567Z,22.6
2023-03-02T14:43:54.486Z,22.6
2023-03-02T14:49:47.118Z,22.6
2023-03-02T14:55:39.817Z,22.1
2023-03-02T15:01:34.966Z,22.1
2023-03-02T15:08:01.730Z,22.2
2023-03-02T15:13:38.658Z,22.3
2023-03-02T15:19:31.015Z,22.3
2023-03-02T15:25:27.512Z,22.3
2023-03-02T15:31:20.902Z,22.3
2023-03-02T15:37:13.643Z,22.3
2023-03-02T15:43:08.268Z,22.3
2023-03-02T15:49:01.404Z,22.3
2023-03-02T15:54:54.920Z,22.3
2023-03-02T16:00:43.499Z,22.3
2023-03-02T16:06:37.334Z,22.3
2023-03-02T16:12:30.921Z,22.3
2023-03-02T16:18:24.041Z,22.3
2023-03-02T16:24:17.275Z,22.3
2023-03-02T16:30:10.653Z,22.3
2023-03-02T16:36:04.067Z,22.3
2023-03-02T16:41:57.653Z,22.3
2023-03-02T16:47:35.940Z,22.3
2023-03-02T16:53:29.230Z,22.3
2023-03-02T16:59:22.933Z,22.3
2023-03-02T17:05:17.031Z,22.3
2023-03-02T17:11:15.108Z,22.3
2023-03-02T17:17:07.995Z,22.3
2023-03-02T17:23:00.623Z,22.3
2023-03-02T17:29:08.999Z,22.2
2023-03-02T17:35:01.898Z,22.2
2023-03-02T17:40:54.211Z,22.2
2023-03-02T17:46:51.251Z,22.2
2023-03-02T17:52:44.398Z,22.2
2023-03-02T17:58:44.503Z,22.2
2023-03-02T18:04:38.316Z,22.2
2023-03-02T18:10:34.600Z,22.2
2023-03-02T18:16:27.561Z,22.2
2023-03-02T18:22:05.338Z,22.1
2023-03-02T18:27:59.300Z,22.2
2023-03-02T18:33:53.051Z,22.1
2023-03-02T18:39:30.363Z,22.1
2023-03-02T18:45:23.278Z,22.1
2023-03-02T18:51:16.023Z,22.1
2023-03-02T18:57:09.582Z,22.1
2023-03-02T19:03:03.282Z,22.1
2023-03-02T19:08:54.976Z,22.1
2023-03-02T19:14:35.546Z,22.1
2023-03-02T19:20:30.750Z,22.1
2023-03-02T19:26:23.268Z,22.1
2023-03-02T19:32:16.902Z,22.1
2023-03-02T19:37:54.794Z,22.1
2023-03-02T19:43:47.483Z,22.1
2023-03-02T19:49:42.640Z,22.1
2023-03-02T19:55:35.945Z,22.1
2023-03-02T20:01:31.015Z,22.1
2023-03-02T20:07:09.123Z,22.1
2023-03-02T20:13:02.755Z,22.1
2023-03-02T20:19:05.192Z,22.1
2023-03-02T20:24:59.220Z,22.1
2023-03-02T20:30:52.394Z,22.1
2023-03-02T20:36:45.390Z,22
2023-03-02T20:42:42.849Z,22
2023-03-02T20:48:36.541Z,22
2023-03-02T20:54:29.455Z,22
2023-03-02T21:00:07.699Z,22
2023-03-02T21:06:00.512Z,22
2023-03-02T21:11:56.376Z,22
2023-03-02T21:17:52.142Z,22
2023-03-02T21:23:42.510Z,22
2023-03-02T21:29:38.416Z,22
2023-03-02T21:35:33.127Z,22
2023-03-02T21:41:27.266Z,21.9
2023-03-02T21:47:21.058Z,21.9
2023-03-02T21:53:00.722Z,21.9
2023-03-02T21:58:54.330Z,21.9
2023-03-02T22:04:47.292Z,21.9
2023-03-02T22:10:40.367Z,21.9
2023-03-02T22:16:34.120Z,21.9
2023-03-02T22:22:28.021Z,21.9
2023-03-02T22:28:21.163Z,21.9
2023-03-02T22:34:13.922Z,21.9
2023-03-02T22:40:07.228Z,21.9
2023-03-02T22:46:00.669Z,21.9
2023-03-02T22:51:54.305Z,21.9
2023-03-02T22:57:48.408Z,21.9
2023-03-02T23:03:42.072Z,21.9
2023-03-02T23:09:35.316Z,21.9
2023-03-02T23:15:29.298Z,21.9
2023-03-02T23:21:22.613Z,21.9
2023-03-02T23:27:14.903Z,21.9
2023-03-02T23:33:07.800Z,21.9
2023-03-02T23:39:00.727Z,21.9
2023-03-02T23:44:53.305Z,21.9
2023-03-02T23:50:45.379Z,21.9
2023-03-02T23:56:39.525Z,21.9
